createdAt,value
2018-01-20T00:00:03.937Z,928.88
2018-01-20T00:00:16.506Z,928.92
2018-01-20T00:00:29.522Z,928.91
2018-01-20T00:00:42.584Z,928.91
2018-01-20T00:00:55.594Z,928.91
2018-01-20T00:01:08.709Z,928.95
2018-01-20T00:01:21.521Z,928.89
2018-01-20T00:01:34.572Z,928.91
2018-01-20T00:01:47.701Z,928.95
2018-01-20T00:01:59.779Z,928.91
2018-01-20T00:02:12.788Z,928.94
2018-01-20T00:02:25.796Z,928.93
2018-01-20T00:02:38.881Z,928.94
2018-01-20T00:02:51.035Z,928.94
2018-01-20T00:03:03.629Z,928.95
2018-01-20T00:03:16.223Z,928.9
2018-01-20T00:03:28.831Z,928.95
2018-01-20T00:03:41.907Z,928.91
2018-01-20T00:03:53.996Z,928.94
2018-01-20T00:04:07.056Z,928.95
2018-01-20T00:04:20.143Z,928.93
2018-01-20T00:04:33.298Z,928.91
2018-01-20T00:04:45.848Z,928.94
2018-01-20T00:04:58.877Z,928.91
2018-01-20T00:05:11.844Z,928.9
2018-01-20T00:05:25.159Z,928.94
2018-01-20T00:05:38.130Z,928.95
2018-01-20T00:05:50.847Z,928.94
2018-01-20T00:06:03.507Z,928.89
2018-01-20T00:06:16.973Z,928.91
2018-01-20T00:06:30.100Z,928.88
2018-01-20T00:06:42.706Z,928.91
2018-01-20T00:06:55.286Z,928.94
2018-01-20T00:07:08.398Z,928.95
2018-01-20T00:07:20.980Z,928.9
2018-01-20T00:07:33.624Z,928.92
2018-01-20T00:07:46.732Z,928.91
2018-01-20T00:07:59.715Z,928.89
2018-01-20T00:08:12.747Z,928.92
2018-01-20T00:08:25.765Z,928.91
2018-01-20T00:08:37.889Z,928.9
2018-01-20T00:08:50.971Z,928.92
2018-01-20T00:09:04.057Z,928.92
2018-01-20T00:09:16.653Z,928.88
2018-01-20T00:09:29.228Z,928.88
2018-01-20T00:09:42.310Z,928.89
2018-01-20T00:09:55.465Z,928.84
2018-01-20T00:10:08.596Z,928.88
2018-01-20T00:10:21.644Z,928.86
2018-01-20T00:10:34.219Z,928.86
2018-01-20T00:10:47.285Z,928.87
2018-01-20T00:10:59.835Z,928.84
2018-01-20T00:11:11.873Z,928.84
2018-01-20T00:11:24.903Z,928.85
2018-01-20T00:11:37.951Z,928.85
2018-01-20T00:11:50.978Z,928.81
2018-01-20T00:12:02.590Z,928.82
2018-01-20T00:12:15.175Z,928.83
2018-01-20T00:12:27.323Z,928.84
2018-01-20T00:12:39.883Z,928.83
2018-01-20T00:12:52.947Z,928.82
2018-01-20T00:13:05.566Z,928.81
2018-01-20T00:13:18.075Z,928.88
2018-01-20T00:13:30.664Z,928.84
2018-01-20T00:13:43.732Z,928.82
2018-01-20T00:13:56.890Z,928.84
2018-01-20T00:14:09.041Z,928.86
2018-01-20T00:14:22.097Z,928.82
2018-01-20T00:14:35.136Z,928.84
2018-01-20T00:14:48.201Z,928.86
2018-01-20T00:15:00.350Z,928.85
2018-01-20T00:15:12.966Z,928.85
2018-01-20T00:15:25.585Z,928.83
2018-01-20T00:15:38.418Z,928.8
2018-01-20T00:15:51.044Z,928.78
2018-01-20T00:16:02.705Z,928.8
2018-01-20T00:16:15.849Z,928.81
2018-01-20T00:16:28.500Z,928.77
2018-01-20T00:16:41.549Z,928.78
2018-01-20T00:16:54.588Z,928.83
2018-01-20T00:17:07.308Z,928.81
2018-01-20T00:17:19.433Z,928.81
2018-01-20T00:17:32.044Z,928.85
2018-01-20T00:17:44.675Z,928.83
2018-01-20T00:17:57.759Z,928.81
2018-01-20T00:18:09.850Z,928.83
2018-01-20T00:18:22.930Z,928.84
2018-01-20T00:18:35.926Z,928.81
2018-01-20T00:18:48.573Z,928.81
2018-01-20T00:19:01.617Z,928.83
2018-01-20T00:19:14.673Z,928.9
2018-01-20T00:19:27.258Z,928.86
2018-01-20T00:19:39.852Z,928.85
2018-01-20T00:19:52.024Z,928.86
2018-01-20T00:20:05.015Z,928.86
2018-01-20T00:20:17.172Z,928.82
2018-01-20T00:20:29.773Z,928.88
2018-01-20T00:20:42.853Z,928.87
2018-01-20T00:20:54.979Z,928.85
2018-01-20T00:21:07.550Z,928.82
2018-01-20T00:21:21.007Z,928.81
2018-01-20T00:21:34.008Z,928.81
2018-01-20T00:21:47.097Z,928.82
2018-01-20T00:22:00.207Z,928.83
2018-01-20T00:22:12.394Z,928.83
2018-01-20T00:22:25.398Z,928.84
2018-01-20T00:22:38.460Z,928.8
2018-01-20T00:22:51.504Z,928.83
2018-01-20T00:23:04.517Z,928.84
2018-01-20T00:23:17.639Z,928.85
2018-01-20T00:23:30.155Z,928.83
2018-01-20T00:23:42.673Z,928.8
2018-01-20T00:23:55.734Z,928.83
2018-01-20T00:24:08.823Z,928.84
2018-01-20T00:24:20.900Z,928.87
2018-01-20T00:24:33.416Z,928.87
2018-01-20T00:24:46.464Z,928.88
2018-01-20T00:24:59.008Z,928.88
2018-01-20T00:25:12.031Z,928.87
2018-01-20T00:25:24.624Z,928.89
2018-01-20T00:25:37.643Z,928.93
2018-01-20T00:25:50.684Z,928.89
2018-01-20T00:26:02.854Z,928.89
2018-01-20T00:26:14.519Z,928.89
2018-01-20T00:26:27.150Z,928.93
2018-01-20T00:26:40.195Z,928.89
2018-01-20T00:26:53.248Z,928.89
2018-01-20T00:27:05.882Z,928.9
2018-01-20T00:27:18.917Z,928.9
2018-01-20T00:27:31.478Z,928.89
2018-01-20T00:27:44.036Z,928.9
2018-01-20T00:27:56.114Z,928.9
2018-01-20T00:28:08.608Z,928.89
2018-01-20T00:28:21.675Z,928.9
2018-01-20T00:28:33.758Z,928.91
2018-01-20T00:28:46.819Z,928.88
2018-01-20T00:28:59.934Z,928.88
2018-01-20T00:29:13.000Z,928.89
2018-01-20T00:29:25.582Z,928.84
2018-01-20T00:29:37.695Z,928.86
2018-01-20T00:29:50.754Z,928.89
2018-01-20T00:30:03.807Z,928.85
2018-01-20T00:30:16.422Z,928.85
2018-01-20T00:30:28.970Z,928.87
2018-01-20T00:30:41.981Z,928.87
2018-01-20T00:30:54.599Z,928.86
2018-01-20T00:31:07.729Z,928.85
2018-01-20T00:31:20.783Z,928.81
2018-01-20T00:31:32.947Z,928.83
2018-01-20T00:31:45.509Z,928.78
2018-01-20T00:31:58.493Z,928.83
2018-01-20T00:32:11.521Z,928.83
2018-01-20T00:32:24.538Z,928.8
2018-01-20T00:32:37.672Z,928.82
2018-01-20T00:32:49.788Z,928.83
2018-01-20T00:33:01.925Z,928.84
2018-01-20T00:33:14.054Z,928.79
2018-01-20T00:33:27.100Z,928.8
2018-01-20T00:33:40.238Z,928.81
2018-01-20T00:33:52.916Z,928.81
2018-01-20T00:34:05.991Z,928.86
2018-01-20T00:34:18.144Z,928.83
2018-01-20T00:34:31.154Z,928.86
2018-01-20T00:34:44.272Z,928.82
2018-01-20T00:34:56.859Z,928.85
2018-01-20T00:35:09.919Z,928.89
2018-01-20T00:35:22.958Z,928.87
2018-01-20T00:35:35.522Z,928.87
2018-01-20T00:35:48.571Z,928.85
2018-01-20T00:36:01.168Z,928.88
2018-01-20T00:36:13.310Z,928.9
2018-01-20T00:36:26.302Z,928.9
2018-01-20T00:36:39.326Z,928.88
2018-01-20T00:36:52.420Z,928.89
2018-01-20T00:37:05.409Z,928.9
2018-01-20T00:37:18.501Z,928.91
2018-01-20T00:37:31.555Z,928.88
2018-01-20T00:37:44.133Z,928.92
2018-01-20T00:37:56.732Z,928.91
2018-01-20T00:38:08.897Z,928.91
2018-01-20T00:38:21.890Z,928.92
2018-01-20T00:38:34.902Z,928.92
2018-01-20T00:38:47.473Z,928.93
2018-01-20T00:39:00.487Z,928.96
2018-01-20T00:39:12.701Z,928.95
2018-01-20T00:39:25.338Z,928.93
2018-01-20T00:39:38.431Z,928.96
2018-01-20T00:39:51.463Z,928.99
2018-01-20T00:40:04.039Z,928.95
2018-01-20T00:40:17.036Z,928.95
2018-01-20T00:40:29.635Z,928.98
2018-01-20T00:40:42.686Z,928.97
2018-01-20T00:40:55.718Z,928.96
2018-01-20T00:41:08.268Z,928.96
2018-01-20T00:41:20.844Z,928.96
2018-01-20T00:41:33.956Z,928.95
2018-01-20T00:41:46.109Z,928.96
2018-01-20T00:41:59.192Z,928.95
2018-01-20T00:42:11.838Z,928.98
2018-01-20T00:42:24.864Z,928.94
2018-01-20T00:42:38.092Z,928.96
2018-01-20T00:42:50.204Z,928.95
2018-01-20T00:43:02.359Z,928.96
2018-01-20T00:43:14.964Z,928.94
2018-01-20T00:43:27.986Z,928.96
2018-01-20T00:43:41.014Z,928.98
2018-01-20T00:43:54.082Z,928.98
2018-01-20T00:44:06.711Z,928.98
2018-01-20T00:44:19.232Z,928.95
2018-01-20T00:44:31.800Z,928.98
2018-01-20T00:44:44.860Z,928.99
2018-01-20T00:44:57.878Z,928.97
2018-01-20T00:45:10.926Z,928.99
2018-01-20T00:45:23.586Z,928.98
2018-01-20T00:45:36.688Z,928.97
2018-01-20T00:45:49.822Z,928.98
2018-01-20T00:46:01.957Z,929.01
2018-01-20T00:46:14.037Z,928.97
2018-01-20T00:46:27.372Z,928.97
2018-01-20T00:46:40.559Z,928.98
2018-01-20T00:46:53.620Z,928.99
2018-01-20T00:47:06.223Z,928.97
2018-01-20T00:47:19.344Z,928.98
2018-01-20T00:47:31.934Z,928.92
2018-01-20T00:47:43.619Z,928.95
2018-01-20T00:47:56.705Z,928.94
2018-01-20T00:48:09.336Z,928.95
2018-01-20T00:48:22.480Z,928.91
2018-01-20T00:48:35.483Z,928.98
2018-01-20T00:48:48.499Z,928.94
2018-01-20T00:49:01.550Z,928.96
2018-01-20T00:49:14.639Z,928.97
2018-01-20T00:49:27.713Z,928.89
2018-01-20T00:49:40.332Z,928.92
2018-01-20T00:49:52.943Z,928.95
2018-01-20T00:50:05.531Z,928.93
2018-01-20T00:50:18.128Z,928.9
2018-01-20T00:50:30.721Z,928.89
2018-01-20T00:50:43.800Z,928.89
2018-01-20T00:50:55.895Z,928.93
2018-01-20T00:51:08.920Z,928.93
2018-01-20T00:51:21.561Z,928.93
2018-01-20T00:51:35.419Z,928.93
2018-01-20T00:51:48.512Z,928.91
2018-01-20T00:52:01.112Z,928.93
2018-01-20T00:52:13.695Z,928.92
2018-01-20T00:52:26.309Z,928.94
2018-01-20T00:52:38.888Z,928.92
2018-01-20T00:52:51.072Z,928.95
2018-01-20T00:53:04.215Z,928.91
2018-01-20T00:53:17.282Z,928.91
2018-01-20T00:53:29.846Z,928.96
2018-01-20T00:53:42.447Z,928.97
2018-01-20T00:53:54.590Z,928.96
2018-01-20T00:54:07.235Z,928.96
2018-01-20T00:54:20.266Z,928.97
2018-01-20T00:54:33.290Z,928.98
2018-01-20T00:54:45.782Z,928.98
2018-01-20T00:54:58.826Z,928.98
2018-01-20T00:55:11.966Z,928.98
2018-01-20T00:55:25.014Z,928.97
2018-01-20T00:55:37.086Z,928.99
2018-01-20T00:55:50.100Z,929.03
2018-01-20T00:56:02.290Z,928.97
2018-01-20T00:56:15.397Z,929
2018-01-20T00:56:28.441Z,929.03
2018-01-20T00:56:41.025Z,929.03
2018-01-20T00:56:53.167Z,929.01
2018-01-20T00:57:05.730Z,929.01
2018-01-20T00:57:17.775Z,929.03
2018-01-20T00:57:30.325Z,929.03
2018-01-20T00:57:42.489Z,929.02
2018-01-20T00:57:55.087Z,929.01
2018-01-20T00:58:07.658Z,929
2018-01-20T00:58:20.232Z,929.01
2018-01-20T00:58:32.794Z,928.98
2018-01-20T00:58:45.359Z,928.99
2018-01-20T00:58:58.462Z,929
2018-01-20T00:59:11.538Z,929.02
2018-01-20T00:59:24.651Z,929.02
2018-01-20T00:59:36.352Z,928.99
2018-01-20T00:59:49.396Z,929.04
2018-01-20T01:00:02.020Z,929.02
2018-01-20T01:00:14.651Z,928.99
2018-01-20T01:00:27.714Z,929
2018-01-20T01:00:40.812Z,929.02
2018-01-20T01:00:53.368Z,929.02
2018-01-20T01:01:05.457Z,929.01
2018-01-20T01:01:18.031Z,928.99
2018-01-20T01:01:31.143Z,928.97
2018-01-20T01:01:44.485Z,928.96
2018-01-20T01:01:57.099Z,928.97
2018-01-20T01:02:10.132Z,928.97
2018-01-20T01:02:23.192Z,928.97
2018-01-20T01:02:36.274Z,929.01
2018-01-20T01:02:48.901Z,929.01
2018-01-20T01:03:02.004Z,928.98
2018-01-20T01:03:15.135Z,928.97
2018-01-20T01:03:27.663Z,928.98
2018-01-20T01:03:40.758Z,928.97
2018-01-20T01:03:52.898Z,928.97
2018-01-20T01:04:05.458Z,929
2018-01-20T01:04:18.026Z,928.97
2018-01-20T01:04:31.058Z,928.98
2018-01-20T01:04:44.210Z,928.98
2018-01-20T01:04:56.767Z,928.98
2018-01-20T01:05:08.856Z,929
2018-01-20T01:05:21.909Z,928.97
2018-01-20T01:05:35.037Z,928.99
2018-01-20T01:05:47.646Z,929.01
2018-01-20T01:06:00.196Z,928.98
2018-01-20T01:06:12.793Z,929
2018-01-20T01:06:25.923Z,929.01
2018-01-20T01:06:39.475Z,929.04
2018-01-20T01:06:52.507Z,929
2018-01-20T01:07:05.606Z,929.02
2018-01-20T01:07:17.323Z,929
2018-01-20T01:07:29.908Z,929.02
2018-01-20T01:07:42.491Z,929.01
2018-01-20T01:07:55.126Z,929
2018-01-20T01:08:07.815Z,928.99
2018-01-20T01:08:20.872Z,928.99
2018-01-20T01:08:33.949Z,929.03
2018-01-20T01:08:45.988Z,929
2018-01-20T01:08:59.109Z,928.99
2018-01-20T01:09:12.217Z,929.04
2018-01-20T01:09:25.346Z,929.03
2018-01-20T01:09:37.876Z,929.03
2018-01-20T01:09:50.576Z,929.05
2018-01-20T01:10:03.158Z,929.06
2018-01-20T01:10:15.733Z,929.03
2018-01-20T01:10:28.327Z,929.05
2018-01-20T01:10:40.970Z,929.05
2018-01-20T01:10:52.556Z,929.08
2018-01-20T01:11:04.181Z,929.05
2018-01-20T01:11:17.282Z,929.05
2018-01-20T01:11:30.358Z,929.07
2018-01-20T01:11:43.489Z,929.04
2018-01-20T01:11:56.071Z,929.07
2018-01-20T01:12:08.642Z,929.09
2018-01-20T01:12:21.723Z,929.08
2018-01-20T01:12:34.331Z,929.07
2018-01-20T01:12:46.953Z,929.08
2018-01-20T01:12:59.970Z,929.11
2018-01-20T01:13:13.002Z,929.07
2018-01-20T01:13:25.641Z,929.09
2018-01-20T01:13:37.781Z,929.1
2018-01-20T01:13:50.351Z,929.07
2018-01-20T01:14:03.419Z,929.09
2018-01-20T01:14:16.076Z,929.14
2018-01-20T01:14:28.249Z,929.11
2018-01-20T01:14:40.815Z,929.12
2018-01-20T01:14:53.879Z,929.08
2018-01-20T01:15:06.552Z,929.1
2018-01-20T01:15:19.579Z,929.14
2018-01-20T01:15:32.151Z,929.13
2018-01-20T01:15:45.178Z,929.12
2018-01-20T01:15:57.780Z,929.14
2018-01-20T01:16:10.844Z,929.15
2018-01-20T01:16:23.931Z,929.14
2018-01-20T01:16:37.003Z,929.13
2018-01-20T01:16:50.193Z,929.13
2018-01-20T01:17:02.312Z,929.14
2018-01-20T01:17:14.922Z,929.14
2018-01-20T01:17:28.021Z,929.13
2018-01-20T01:17:41.099Z,929.15
2018-01-20T01:17:54.163Z,929.15
2018-01-20T01:18:06.245Z,929.2
2018-01-20T01:18:18.816Z,929.17
2018-01-20T01:18:31.879Z,929.14
2018-01-20T01:18:44.524Z,929.16
2018-01-20T01:18:57.093Z,929.16
2018-01-20T01:19:10.157Z,929.16
2018-01-20T01:19:22.255Z,929.14
2018-01-20T01:19:35.273Z,929.12
2018-01-20T01:19:48.377Z,929.17
2018-01-20T01:20:01.020Z,929.16
2018-01-20T01:20:13.147Z,929.14
2018-01-20T01:20:25.769Z,929.14
2018-01-20T01:20:38.912Z,929.13
2018-01-20T01:20:51.554Z,929.13
2018-01-20T01:21:04.617Z,929.14
2018-01-20T01:21:17.622Z,929.13
2018-01-20T01:21:29.808Z,929.12
2018-01-20T01:21:43.845Z,929.13
2018-01-20T01:21:55.052Z,929.14
2018-01-20T01:22:08.089Z,929.15
2018-01-20T01:22:20.665Z,929.14
2018-01-20T01:22:33.801Z,929.13
2018-01-20T01:22:45.908Z,929.15
2018-01-20T01:22:58.894Z,929.12
2018-01-20T01:23:10.964Z,929.16
2018-01-20T01:23:24.055Z,929.17
2018-01-20T01:23:37.135Z,929.17
2018-01-20T01:23:49.764Z,929.14
2018-01-20T01:24:02.752Z,929.14
2018-01-20T01:24:15.856Z,929.17
2018-01-20T01:24:28.431Z,929.13
2018-01-20T01:24:40.567Z,929.16
2018-01-20T01:24:53.613Z,929.15
2018-01-20T01:25:06.259Z,929.11
2018-01-20T01:25:19.315Z,929.15
2018-01-20T01:25:31.875Z,929.14
2018-01-20T01:25:44.876Z,929.12
2018-01-20T01:25:57.453Z,929.12
2018-01-20T01:26:10.474Z,929.12
2018-01-20T01:26:23.598Z,929.16
2018-01-20T01:26:36.156Z,929.19
2018-01-20T01:26:48.755Z,929.16
2018-01-20T01:27:01.861Z,929.16
2018-01-20T01:27:14.967Z,929.15
2018-01-20T01:27:28.076Z,929.17
2018-01-20T01:27:41.191Z,929.15
2018-01-20T01:27:54.349Z,929.16
2018-01-20T01:28:07.485Z,929.17
2018-01-20T01:28:20.077Z,929.15
2018-01-20T01:28:33.115Z,929.12
2018-01-20T01:28:45.721Z,929.18
2018-01-20T01:28:57.834Z,929.13
2018-01-20T01:29:10.965Z,929.13
2018-01-20T01:29:24.169Z,929.1
2018-01-20T01:29:36.837Z,929.14
2018-01-20T01:29:49.901Z,929.11
2018-01-20T01:30:02.480Z,929.1
2018-01-20T01:30:15.174Z,929.09
2018-01-20T01:30:27.804Z,929.14
2018-01-20T01:30:39.902Z,929.09
2018-01-20T01:30:52.499Z,929.14
2018-01-20T01:31:05.190Z,929.12
2018-01-20T01:31:18.256Z,929.1
2018-01-20T01:31:30.845Z,929.13
2018-01-20T01:31:43.435Z,929.1
2018-01-20T01:31:55.509Z,929.09
2018-01-20T01:32:08.060Z,929.07
2018-01-20T01:32:21.137Z,929.12
2018-01-20T01:32:33.294Z,929.09
2018-01-20T01:32:46.389Z,929.04
2018-01-20T01:32:58.982Z,929.06
2018-01-20T01:33:12.036Z,929.06
2018-01-20T01:33:24.640Z,929.06
2018-01-20T01:33:36.871Z,929.04
2018-01-20T01:33:49.979Z,929.03
2018-01-20T01:34:02.458Z,929.04
2018-01-20T01:34:15.062Z,929.09
2018-01-20T01:34:28.135Z,929.03
2018-01-20T01:34:41.277Z,929.01
2018-01-20T01:34:54.377Z,929.03
2018-01-20T01:35:07.388Z,929.04
2018-01-20T01:35:20.458Z,929.02
2018-01-20T01:35:33.481Z,928.99
2018-01-20T01:35:46.585Z,929.03
2018-01-20T01:35:59.147Z,929
2018-01-20T01:36:12.223Z,929.03
2018-01-20T01:36:25.235Z,929.06
2018-01-20T01:36:37.841Z,929.09
2018-01-20T01:36:51.181Z,929.05
2018-01-20T01:37:03.824Z,929.06
2018-01-20T01:37:16.350Z,929.02
2018-01-20T01:37:29.424Z,929.09
2018-01-20T01:37:42.555Z,929.04
2018-01-20T01:37:55.659Z,929.04
2018-01-20T01:38:08.224Z,929.07
2018-01-20T01:38:21.227Z,929.08
2018-01-20T01:38:33.805Z,929.09
2018-01-20T01:38:45.924Z,929.08
2018-01-20T01:38:58.475Z,929.06
2018-01-20T01:39:11.526Z,929.07
2018-01-20T01:39:24.603Z,929.04
2018-01-20T01:39:37.213Z,929.03
2018-01-20T01:39:50.225Z,929.03
2018-01-20T01:40:02.330Z,929.02
2018-01-20T01:40:14.922Z,929.04
2018-01-20T01:40:27.947Z,929.04
2018-01-20T01:40:40.948Z,929.07
2018-01-20T01:40:54.049Z,929.03
2018-01-20T01:41:06.643Z,929.03
2018-01-20T01:41:19.761Z,929.04
2018-01-20T01:41:32.340Z,929.03
2018-01-20T01:41:44.936Z,929.06
2018-01-20T01:41:58.011Z,929.03
2018-01-20T01:42:10.056Z,929.06
2018-01-20T01:42:23.024Z,929.01
2018-01-20T01:42:36.123Z,929.03
2018-01-20T01:42:48.659Z,929.08
2018-01-20T01:43:01.664Z,929.04
2018-01-20T01:43:14.321Z,929.04
2018-01-20T01:43:27.443Z,929.05
2018-01-20T01:43:40.100Z,929.06
2018-01-20T01:43:52.677Z,929.03
2018-01-20T01:44:05.239Z,929.05
2018-01-20T01:44:17.784Z,929.03
2018-01-20T01:44:30.917Z,929.02
2018-01-20T01:44:44.071Z,929.04
2018-01-20T01:44:56.739Z,929.03
2018-01-20T01:45:09.771Z,929.02
2018-01-20T01:45:22.809Z,929.04
2018-01-20T01:45:35.486Z,929.01
2018-01-20T01:45:48.080Z,929.03
2018-01-20T01:46:01.108Z,929.01
2018-01-20T01:46:13.786Z,929.01
2018-01-20T01:46:26.815Z,929.02
2018-01-20T01:46:39.376Z,929.03
2018-01-20T01:46:52.025Z,929.04
2018-01-20T01:47:04.650Z,929.01
2018-01-20T01:47:17.722Z,929.02
2018-01-20T01:47:29.846Z,929.02
2018-01-20T01:47:42.054Z,929
2018-01-20T01:47:54.724Z,929.01
2018-01-20T01:48:07.357Z,929
2018-01-20T01:48:19.491Z,928.97
2018-01-20T01:48:32.031Z,929
2018-01-20T01:48:45.133Z,928.98
2018-01-20T01:48:57.768Z,929
2018-01-20T01:49:10.869Z,929.01
2018-01-20T01:49:23.963Z,928.99
2018-01-20T01:49:37.032Z,928.97
2018-01-20T01:49:50.135Z,928.99
2018-01-20T01:50:02.761Z,928.99
2018-01-20T01:50:14.403Z,929
2018-01-20T01:50:27.558Z,929
2018-01-20T01:50:40.675Z,928.99
2018-01-20T01:50:53.778Z,928.96
2018-01-20T01:51:06.355Z,928.98
2018-01-20T01:51:19.383Z,928.97
2018-01-20T01:51:31.956Z,928.94
2018-01-20T01:51:45.055Z,928.94
2018-01-20T01:51:58.511Z,928.96
2018-01-20T01:52:11.096Z,928.97
2018-01-20T01:52:24.165Z,928.97
2018-01-20T01:52:37.265Z,928.99
2018-01-20T01:52:49.841Z,928.97
2018-01-20T01:53:02.982Z,928.98
2018-01-20T01:53:15.595Z,928.99
2018-01-20T01:53:28.702Z,929
2018-01-20T01:54:00.438Z,929.01
2018-01-20T01:54:13.522Z,929.04
2018-01-20T01:54:26.154Z,929.03
2018-01-20T01:54:38.752Z,929.02
2018-01-20T01:54:51.304Z,929.01
2018-01-20T01:55:02.940Z,929.04
2018-01-20T01:55:15.997Z,929.07
2018-01-20T01:55:29.056Z,929.04
2018-01-20T01:55:42.034Z,929.03
2018-01-20T01:55:55.104Z,929.04
2018-01-20T01:56:08.121Z,929.06
2018-01-20T01:56:21.173Z,929.03
2018-01-20T01:56:34.221Z,929.02
2018-01-20T01:56:47.303Z,929.05
2018-01-20T01:56:59.446Z,929.06
2018-01-20T01:57:12.057Z,929.06
2018-01-20T01:57:25.162Z,929.02
2018-01-20T01:57:37.767Z,929.05
2018-01-20T01:57:50.850Z,929.03
2018-01-20T01:58:03.520Z,929.02
2018-01-20T01:58:16.046Z,929.01
2018-01-20T01:58:29.132Z,929.02
2018-01-20T01:58:42.290Z,929.01
2018-01-20T01:58:54.902Z,928.98
2018-01-20T01:59:07.915Z,929
2018-01-20T01:59:20.990Z,929
2018-01-20T01:59:33.627Z,929.01
2018-01-20T01:59:46.210Z,928.97
2018-01-20T01:59:58.774Z,928.96
2018-01-20T02:00:11.727Z,928.95
2018-01-20T02:00:24.337Z,928.96
2018-01-20T02:00:36.952Z,928.98
2018-01-20T02:00:49.985Z,928.94
2018-01-20T02:01:02.570Z,928.98
2018-01-20T02:01:15.607Z,928.95
2018-01-20T02:01:28.775Z,928.94
2018-01-20T02:01:41.823Z,928.92
2018-01-20T02:01:54.948Z,928.95
2018-01-20T02:02:08.247Z,928.93
2018-01-20T02:02:20.814Z,928.9
2018-01-20T02:02:33.400Z,928.89
2018-01-20T02:02:46.446Z,928.93
2018-01-20T02:02:58.984Z,928.89
2018-01-20T02:03:11.980Z,928.89
2018-01-20T02:03:24.097Z,928.91
2018-01-20T02:03:36.671Z,928.9
2018-01-20T02:03:49.769Z,928.89
2018-01-20T02:04:01.907Z,928.86
2018-01-20T02:04:14.001Z,928.9
2018-01-20T02:04:27.049Z,928.9
2018-01-20T02:04:39.176Z,928.88
2018-01-20T02:04:51.225Z,928.88
2018-01-20T02:05:03.825Z,928.87
2018-01-20T02:05:16.406Z,928.86
2018-01-20T02:05:29.422Z,928.89
2018-01-20T02:05:42.014Z,928.9
2018-01-20T02:05:55.051Z,928.88
2018-01-20T02:06:07.560Z,928.89
2018-01-20T02:06:20.589Z,928.89
2018-01-20T02:06:32.652Z,928.89
2018-01-20T02:06:45.707Z,928.9
2018-01-20T02:06:57.816Z,928.91
2018-01-20T02:07:11.541Z,928.9
2018-01-20T02:07:24.552Z,928.91
2018-01-20T02:07:37.602Z,928.92
2018-01-20T02:07:50.618Z,928.9
2018-01-20T02:08:03.220Z,928.91
2018-01-20T02:08:15.384Z,928.89
2018-01-20T02:08:27.935Z,928.9
2018-01-20T02:08:40.974Z,928.88
2018-01-20T02:08:53.575Z,928.91
2018-01-20T02:09:06.145Z,928.89
2018-01-20T02:09:18.283Z,928.88
2018-01-20T02:09:31.328Z,928.93
2018-01-20T02:09:44.384Z,928.88
2018-01-20T02:09:56.924Z,928.93
2018-01-20T02:10:09.010Z,928.92
2018-01-20T02:10:22.068Z,928.94
2018-01-20T02:10:35.122Z,928.89
2018-01-20T02:10:47.723Z,928.96
2018-01-20T02:11:00.717Z,928.97
2018-01-20T02:11:12.848Z,928.9
2018-01-20T02:11:25.791Z,928.91
2018-01-20T02:11:38.319Z,928.9
2018-01-20T02:11:51.384Z,928.93
2018-01-20T02:12:04.394Z,928.96
2018-01-20T02:12:16.973Z,928.93
2018-01-20T02:12:29.537Z,928.88
2018-01-20T02:12:42.517Z,928.92
2018-01-20T02:12:55.107Z,928.93
2018-01-20T02:13:08.164Z,928.93
2018-01-20T02:13:20.703Z,928.92
2018-01-20T02:13:33.690Z,928.92
2018-01-20T02:13:46.260Z,928.89
2018-01-20T02:13:58.849Z,928.89
2018-01-20T02:14:11.417Z,928.88
2018-01-20T02:14:23.998Z,928.85
2018-01-20T02:14:37.003Z,928.88
2018-01-20T02:14:49.566Z,928.86
2018-01-20T02:15:02.624Z,928.86
2018-01-20T02:15:15.170Z,928.88
2018-01-20T02:15:28.245Z,928.86
2018-01-20T02:15:40.849Z,928.85
2018-01-20T02:15:53.872Z,928.86
2018-01-20T02:16:06.958Z,928.85
2018-01-20T02:16:20.025Z,928.87
2018-01-20T02:16:32.999Z,928.84
2018-01-20T02:16:45.567Z,928.83
2018-01-20T02:16:58.125Z,928.86
2018-01-20T02:17:10.744Z,928.84
2018-01-20T02:17:23.336Z,928.82
2018-01-20T02:17:35.968Z,928.79
2018-01-20T02:17:48.547Z,928.8
2018-01-20T02:18:01.095Z,928.83
2018-01-20T02:18:14.097Z,928.8
2018-01-20T02:18:26.628Z,928.78
2018-01-20T02:18:39.643Z,928.78
2018-01-20T02:18:51.712Z,928.8
2018-01-20T02:19:04.254Z,928.83
2018-01-20T02:19:16.813Z,928.81
2018-01-20T02:19:29.823Z,928.81
2018-01-20T02:19:42.826Z,928.82
2018-01-20T02:19:55.383Z,928.79
2018-01-20T02:20:07.963Z,928.81
2018-01-20T02:20:21.034Z,928.79
2018-01-20T02:20:34.100Z,928.8
2018-01-20T02:20:47.127Z,928.77
2018-01-20T02:21:00.118Z,928.8
2018-01-20T02:21:12.650Z,928.79
2018-01-20T02:21:25.202Z,928.8
2018-01-20T02:21:38.216Z,928.81
2018-01-20T02:21:50.817Z,928.78
2018-01-20T02:22:03.812Z,928.81
2018-01-20T02:22:17.169Z,928.79
2018-01-20T02:22:29.734Z,928.81
2018-01-20T02:22:42.849Z,928.78
2018-01-20T02:22:55.435Z,928.8
2018-01-20T02:23:08.077Z,928.77
2018-01-20T02:23:20.692Z,928.79
2018-01-20T02:23:33.311Z,928.79
2018-01-20T02:23:44.901Z,928.79
2018-01-20T02:23:57.041Z,928.8
2018-01-20T02:24:10.138Z,928.8
2018-01-20T02:24:23.219Z,928.8
2018-01-20T02:24:36.239Z,928.8
2018-01-20T02:24:49.324Z,928.79
2018-01-20T02:25:02.362Z,928.8
2018-01-20T02:25:14.931Z,928.82
2018-01-20T02:25:28.009Z,928.8
2018-01-20T02:25:41.025Z,928.79
2018-01-20T02:25:53.569Z,928.79
2018-01-20T02:26:06.654Z,928.79
2018-01-20T02:26:19.744Z,928.77
2018-01-20T02:26:31.903Z,928.76
2018-01-20T02:26:44.494Z,928.8
2018-01-20T02:26:57.569Z,928.79
2018-01-20T02:27:10.155Z,928.76
2018-01-20T02:27:22.710Z,928.8
2018-01-20T02:27:35.718Z,928.77
2018-01-20T02:27:48.741Z,928.79
2018-01-20T02:28:01.301Z,928.8
2018-01-20T02:28:13.862Z,928.77
2018-01-20T02:28:26.488Z,928.75
2018-01-20T02:28:39.525Z,928.74
2018-01-20T02:28:52.615Z,928.75
2018-01-20T02:29:05.663Z,928.73
2018-01-20T02:29:18.192Z,928.74
2018-01-20T02:29:30.282Z,928.73
2018-01-20T02:29:42.860Z,928.75
2018-01-20T02:29:54.504Z,928.74
2018-01-20T02:30:07.151Z,928.74
2018-01-20T02:30:19.684Z,928.72
2018-01-20T02:30:32.709Z,928.72
2018-01-20T02:30:45.265Z,928.7
2018-01-20T02:30:58.283Z,928.73
2018-01-20T02:31:11.343Z,928.71
2018-01-20T02:31:23.947Z,928.67
2018-01-20T02:31:36.990Z,928.68
2018-01-20T02:31:50.069Z,928.7
2018-01-20T02:32:02.684Z,928.67
2018-01-20T02:32:16.014Z,928.66
2018-01-20T02:32:29.052Z,928.67
2018-01-20T02:32:42.089Z,928.66
2018-01-20T02:32:54.179Z,928.65
2018-01-20T02:33:06.239Z,928.66
2018-01-20T02:33:18.772Z,928.63
2018-01-20T02:33:32.062Z,928.65
2018-01-20T02:33:45.141Z,928.64
2018-01-20T02:33:58.201Z,928.64
2018-01-20T02:34:11.258Z,928.61
2018-01-20T02:34:24.258Z,928.61
2018-01-20T02:34:36.860Z,928.61
2018-01-20T02:34:49.452Z,928.63
2018-01-20T02:35:01.552Z,928.61
2018-01-20T02:35:14.630Z,928.64
2018-01-20T02:35:27.697Z,928.62
2018-01-20T02:35:40.297Z,928.61
2018-01-20T02:35:52.392Z,928.62
2018-01-20T02:36:05.505Z,928.58
2018-01-20T02:36:18.540Z,928.58
2018-01-20T02:36:31.619Z,928.57
2018-01-20T02:36:44.242Z,928.58
2018-01-20T02:36:57.321Z,928.55
2018-01-20T02:37:09.439Z,928.57
2018-01-20T02:37:23.272Z,928.57
2018-01-20T02:37:36.319Z,928.55
2018-01-20T02:37:49.367Z,928.55
2018-01-20T02:38:02.490Z,928.61
2018-01-20T02:38:15.554Z,928.59
2018-01-20T02:38:28.590Z,928.62
2018-01-20T02:38:41.208Z,928.58
2018-01-20T02:38:53.777Z,928.56
2018-01-20T02:39:06.413Z,928.6
2018-01-20T02:39:19.084Z,928.62
2018-01-20T02:39:32.201Z,928.64
2018-01-20T02:39:45.332Z,928.63
2018-01-20T02:39:56.970Z,928.64
2018-01-20T02:40:09.114Z,928.61
2018-01-20T02:40:21.750Z,928.64